Eminence, MO (65466)

6:51 PM CDT on July 31, 2014 (GMT -0500)
Country (KMOELKCR7) Elev 1332 ft | 37.15 °N, 91.91 °W | Change Station

Current weather conditions updated 4 minutes ago

Overcast
Overcast
74.7 °F
Feels Like 75 °F
N
0.0
Wind Variable Wind from SSW
Gusts 1.0 mph

Tomorrow is forecast to be Warmer than today. Afternoon thunderstorms.

Today
High -- | Low -- °F
--% Chance of Precip.
Yesterday
High -- | Low -- °F
Precip. -- in
6:09 AM 8:14 PM
Waxing Crescent, 22% visible
Pressure 30.06 in
Visibility 10.0 miles
Clouds Few 7500 ft
Overcast 9000 ft
Heat Index 75 °F
Dew Point 67 °F
Humidity 78%
Rainfall 0.00 in
Snow Depth Not available.
UV 1 out of 12
Pollen 3.60 out of 12
Air Quality Not available.
Flu Activity Not available.
METAR KUNO 312253Z AUTO 20004KT 10SM FEW075 OVC090 23/18 A3009 RMK AO2 SLP179 T02280183

More Conditions Fewer Conditions

Pressure 30.06 in
Visibility 10.0 miles
Clouds Few 7500 ft
Overcast 9000 ft
Heat Index 75 °F
Dew Point 67 °F
Humidity 78%
Rainfall 0.00 in
Snow Depth Not available.
UV 1 out of 12
Pollen 3.60 out of 12
Air Quality Not available.
Flu Activity Not available.
METAR KUNO 312253Z AUTO 20004KT 10SM FEW075 OVC090 23/18 A3009 RMK AO2 SLP179 T02280183

More Conditions Fewer Conditions

10-Day Weather Forecast

Almanac

Astronomy

Jul. 31, 2014 Rise Set
Actual Time 6:09 AM CDT 8:14 PM CDT
Civil Twilight 5:41 AM CDT 8:42 PM CDT
Nautical Twilight 5:05 AM CDT 9:18 PM CDT
Astronomical Twilight 4:27 AM CDT 9:55 PM CDT
Moon 10:30 AM CDT 10:34 PM CDT
Length of Visible Light 15h 01m
Length of Day
14h 04m
Tomorrow will be 1m 45s shorter.
Waxing Crescent, 22% of the Moon is Illuminated
Today
Waxing Crescent
Aug 3
First Quarter
Aug 10
Full
Aug 17
Last Quarter
Aug 25
New

Today's Extremes

State Highs State Lows

Community

WunderPhotos

Upload Photos

1,739,460 photos uploaded!

Nearby

Snow Depth

Station Depth Elevation
No new snow has been reported.

Earthquake Activity

City Distance Mag. Time & Date
No recent earthquake activity has been reported nearby.
Minimum magnitude displayed is 2.5.

Coastal Water Temperatures

Place Temperature
No Stations Reporting

Nearby Weather Stations

Station Location Temp. Heat Index Dew Point Humidity Wind Precip. Elev Updated Type
RAWS CARR CREEK MO, Ellington, MO 78 °F 80 °F 67 °F 68% South  at  2 mph 0.00 in / hr 1399 ft 5:35 PM CDT MADIS
Country, Elk Creek, MO 74.7 °F 75 °F 67 °F 78% SSW  at  0.0 mph 0.00 in / hr 1332 ft 6:47 PM CDT Normal

Show More Stations Show Fewer Stations